Time;durP1;ratioP1;P1;durP2;ratioP2;P2;SDS_P1;SDS_P2;PMS_P1;PMS_P2;Temp;Humidity;BMP_temperature;BMP_pressure;BME280_temperature;BME280_humidity;BME280_pressure;Samples;Min_cycle;Max_cycle;Signal;HPM_P1;HPM_P2
2023/05/15 00:01:25;;;;;;;4.68;2.65;;;13.50;99.90;;;;;;5013532;28;20046;-77
2023/05/15 00:03:53;;;;;;;6.65;2.75;;;13.50;99.90;;;;;;4998136;28;20161;-77
2023/05/15 00:06:20;;;;;;;4.32;2.65;;;13.50;99.90;;;;;;4998307;28;20050;-77
2023/05/15 00:08:47;;;;;;;4.38;2.97;;;13.50;99.90;;;;;;4998402;28;20046;-77
2023/05/15 00:11:14;;;;;;;4.35;3.80;;;13.50;99.90;;;;;;4998583;28;20062;-77
2023/05/15 00:13:40;;;;;;;4.88;3.00;;;13.50;99.90;;;;;;4998697;28;20129;-76
2023/05/15 00:16:08;;;;;;;5.03;3.40;;;13.50;99.90;;;;;;4995588;28;20049;-77
2023/05/15 00:18:34;;;;;;;6.82;3.20;;;13.50;99.90;;;;;;4997194;28;20046;-77
2023/05/15 00:21:01;;;;;;;5.25;2.70;;;13.50;99.90;;;;;;4994855;28;20046;-77
2023/05/15 00:23:28;;;;;;;4.65;2.92;;;13.50;99.90;;;;;;4995259;28;20046;-77
2023/05/15 00:25:55;;;;;;;4.90;3.00;;;13.50;99.90;;;;;;4995424;28;20133;-78
2023/05/15 00:28:22;;;;;;;6.45;3.00;;;13.50;99.90;;;;;;4995873;28;20049;-77
2023/05/15 00:30:48;;;;;;;3.95;2.80;;;13.50;99.90;;;;;;4991422;28;20157;-77
2023/05/15 00:33:15;;;;;;;5.93;3.15;;;13.50;99.90;;;;;;4990602;28;20059;-77
2023/05/15 00:35:42;;;;;;;5.38;2.80;;;13.50;99.90;;;;;;4995304;28;20049;-77
2023/05/15 00:38:09;;;;;;;4.03;2.63;;;13.50;99.90;;;;;;4995484;28;20426;-77
2023/05/15 00:40:37;;;;;;;5.13;2.95;;;13.50;99.90;;;;;;4995096;28;20057;-77
2023/05/15 00:43:07;;;;;;;4.03;2.50;;;13.50;99.90;;;;;;4994577;28;20049;-77
2023/05/15 00:45:35;;;;;;;3.13;2.83;;;13.50;99.90;;;;;;4994183;28;20060;-77
2023/05/15 00:48:02;;;;;;;3.50;2.67;;;13.50;99.90;;;;;;4993720;28;20069;-77
2023/05/15 00:50:31;;;;;;;3.85;2.80;;;13.50;99.90;;;;;;4994392;28;20054;-77
2023/05/15 00:52:59;;;;;;;4.65;2.95;;;13.50;99.90;;;;;;4994675;28;20054;-77
2023/05/15 00:55:28;;;;;;;3.80;3.15;;;13.50;99.90;;;;;;4994820;28;20050;-77
2023/05/15 00:57:56;;;;;;;3.22;2.92;;;13.50;99.90;;;;;;4993627;28;20050;-77
2023/05/15 01:00:23;;;;;;;3.08;2.78;;;13.50;99.90;;;;;;4992655;28;20042;-77
2023/05/15 01:02:51;;;;;;;6.80;2.60;;;13.50;99.90;;;;;;4994812;28;20541;-77
2023/05/15 01:05:18;;;;;;;2.78;2.58;;;13.50;99.90;;;;;;4994956;28;20057;-77
2023/05/15 01:07:55;;;;;;;2.92;2.63;;;13.50;99.90;;;;;;5010140;28;20053;-77
2023/05/15 01:10:22;;;;;;;3.42;2.85;;;13.50;99.90;;;;;;4994422;28;20046;-77
2023/05/15 01:12:51;;;;;;;4.57;3.08;;;13.50;99.90;;;;;;4994273;28;20050;-77
2023/05/15 01:15:18;;;;;;;3.80;3.28;;;13.50;99.90;;;;;;4994095;28;20494;-77
2023/05/15 01:17:45;;;;;;;3.17;2.83;;;13.50;99.90;;;;;;4994129;28;20656;-77
2023/05/15 01:20:17;;;;;;;4.28;2.80;;;13.50;99.90;;;;;;4994292;28;20469;-77
2023/05/15 01:22:58;;;;;;;3.33;2.78;;;13.50;99.90;;;;;;4991381;28;20046;-77
2023/05/15 01:25:33;;;;;;;5.40;3.03;;;13.50;99.90;;;;;;4993416;28;20501;-77
2023/05/15 01:28:10;;;;;;;7.25;3.17;;;13.50;99.90;;;;;;4992800;28;20057;-77
2023/05/15 01:30:41;;;;;;;3.28;2.75;;;13.50;99.90;;;;;;4985584;28;20062;-77
2023/05/15 01:33:34;;;;;;;3.53;2.67;;;13.40;99.90;;;;;;4994005;28;20049;-77
2023/05/15 01:36:11;;;;;;;8.48;3.17;;;13.40;99.90;;;;;;4994214;28;20065;-77
2023/05/15 01:38:42;;;;;;;6.13;3.00;;;13.40;99.90;;;;;;4993543;28;20053;-77
2023/05/15 01:41:22;;;;;;;3.38;3.08;;;13.40;99.90;;;;;;4992392;28;20046;-77
2023/05/15 01:44:01;;;;;;;;;;;13.40;99.90;;;;;;4993738;28;20050;-77
2023/05/15 01:46:30;;;;;;;3.28;2.80;;;13.30;99.90;;;;;;4991880;28;19922;-77
2023/05/15 01:49:00;;;;;;;2.63;2.42;;;13.30;99.90;;;;;;4993167;28;20423;-77
2023/05/15 01:51:29;;;;;;;3.17;2.55;;;13.30;99.90;;;;;;5008747;28;20042;-77
2023/05/15 01:53:58;;;;;;;2.58;1.80;;;13.20;99.90;;;;;;4993536;28;20145;-77
2023/05/15 01:56:26;;;;;;;2.95;2.50;;;13.20;99.90;;;;;;4993422;28;20074;-77
2023/05/15 01:58:54;;;;;;;4.63;2.60;;;13.20;99.90;;;;;;4981730;28;20085;-77
2023/05/15 02:01:22;;;;;;;4.47;2.80;;;13.10;99.90;;;;;;4993472;28;20047;-77
2023/05/15 02:03:50;;;;;;;3.25;2.70;;;13.10;99.90;;;;;;5008224;28;20047;-77
2023/05/15 02:06:17;;;;;;;4.15;2.30;;;13.00;99.90;;;;;;4992778;28;20042;-77
2023/05/15 02:08:44;;;;;;;4.40;3.00;;;13.00;99.90;;;;;;4992778;28;20050;-77
2023/05/15 02:11:12;;;;;;;10.18;2.25;;;12.90;99.90;;;;;;4992794;28;20051;-77
2023/05/15 02:13:41;;;;;;;3.65;2.00;;;12.80;99.90;;;;;;4994452;28;20422;-77
2023/05/15 02:16:07;;;;;;;4.22;2.25;;;12.80;99.90;;;;;;4992782;28;20043;-77
2023/05/15 02:18:34;;;;;;;2.70;2.03;;;12.80;99.90;;;;;;4989553;28;20528;-77
2023/05/15 02:21:01;;;;;;;1.80;1.65;;;12.70;99.90;;;;;;4992678;28;20088;-77
2023/05/15 02:23:28;;;;;;;4.32;2.00;;;12.70;99.90;;;;;;4992639;28;20058;-77
2023/05/15 02:26:12;;;;;;;3.38;2.10;;;12.70;99.90;;;;;;4992246;28;20433;-77
2023/05/15 02:28:50;;;;;;;1.75;1.65;;;12.70;99.90;;;;;;4990810;28;20065;-77
2023/05/15 02:31:25;;;;;;;2.47;2.10;;;12.70;99.90;;;;;;4987830;28;20050;-77
2023/05/15 02:34:02;;;;;;;3.03;2.60;;;12.60;99.90;;;;;;4988264;28;20072;-77
2023/05/15 02:36:32;;;;;;;3.72;2.30;;;12.70;99.90;;;;;;4989983;28;20414;-77
2023/05/15 02:39:00;;;;;;;3.17;2.85;;;12.70;99.90;;;;;;4992511;28;20050;-77
2023/05/15 02:41:28;;;;;;;2.75;2.55;;;12.70;99.90;;;;;;4992274;28;20046;-77
2023/05/15 02:43:55;;;;;;;3.70;3.22;;;12.70;99.90;;;;;;4995781;28;20050;-77
2023/05/15 02:46:23;;;;;;;5.70;3.72;;;12.70;99.90;;;;;;4992259;28;20128;-77
2023/05/15 02:48:52;;;;;;;5.40;4.00;;;12.80;99.90;;;;;;4992010;28;20513;-77
2023/05/15 02:51:19;;;;;;;6.28;3.20;;;12.80;99.90;;;;;;4990748;28;20053;-77
2023/05/15 02:53:46;;;;;;;3.70;1.92;;;12.80;99.90;;;;;;4992124;28;20060;-77
2023/05/15 02:56:13;;;;;;;3.00;2.25;;;12.80;99.90;;;;;;4991301;28;20046;-77
2023/05/15 02:58:40;;;;;;;2.50;1.90;;;12.80;99.90;;;;;;4992234;28;20050;-77
2023/05/15 03:01:07;;;;;;;2.78;2.10;;;12.90;99.90;;;;;;4991999;28;20054;-77
2023/05/15 03:03:34;;;;;;;4.28;2.10;;;12.90;99.90;;;;;;4991726;28;20110;-77
2023/05/15 03:06:00;;;;;;;2.83;2.28;;;12.90;99.90;;;;;;4978740;28;20511;-77
2023/05/15 03:08:27;;;;;;;2.75;2.50;;;13.00;99.90;;;;;;4992071;28;20054;-77
2023/05/15 03:10:54;;;;;;;4.05;2.38;;;13.00;99.90;;;;;;4992400;28;20046;-77
2023/05/15 03:13:21;;;;;;;2.63;2.30;;;13.00;99.90;;;;;;4991915;28;20056;-77
2023/05/15 03:15:47;;;;;;;4.05;2.25;;;13.00;99.90;;;;;;4991489;28;20054;-77
2023/05/15 03:18:14;;;;;;;2.88;2.47;;;13.00;99.90;;;;;;4992103;28;20069;-77
2023/05/15 03:20:44;;;;;;;3.10;2.65;;;13.00;99.90;;;;;;4981462;28;20097;-77
2023/05/15 03:23:11;;;;;;;2.70;2.20;;;13.00;99.90;;;;;;4991770;28;20046;-77
2023/05/15 03:25:38;;;;;;;4.20;2.88;;;13.00;99.90;;;;;;4991805;28;20046;-77
2023/05/15 03:28:04;;;;;;;4.28;2.30;;;13.00;99.90;;;;;;4991751;28;20050;-77
2023/05/15 03:30:31;;;;;;;5.90;2.50;;;13.00;99.90;;;;;;4991689;28;20077;-77
2023/05/15 03:32:57;;;;;;;4.60;2.78;;;13.00;99.90;;;;;;4991814;28;20050;-77
2023/05/15 03:35:25;;;;;;;5.10;2.53;;;12.90;99.90;;;;;;4991637;28;20042;-77
2023/05/15 03:37:52;;;;;;;2.70;2.50;;;12.90;99.90;;;;;;5006728;28;20046;-77
2023/05/15 03:40:19;;;;;;;2.85;2.53;;;12.90;99.90;;;;;;4991674;28;20053;-77
2023/05/15 03:42:46;;;;;;;3.28;2.58;;;12.90;99.90;;;;;;4991615;28;20150;-77
2023/05/15 03:45:12;;;;;;;4.18;2.85;;;12.90;99.90;;;;;;4991335;28;20052;-77
2023/05/15 03:47:39;;;;;;;6.03;2.88;;;12.80;99.90;;;;;;4991272;28;20050;-77
2023/05/15 03:50:06;;;;;;;6.00;3.20;;;12.80;99.90;;;;;;4991433;28;20054;-77
2023/05/15 03:52:32;;;;;;;5.32;2.95;;;12.70;99.90;;;;;;4991487;28;20050;-77
2023/05/15 03:55:00;;;;;;;3.83;3.10;;;12.60;99.90;;;;;;4992832;28;20053;-77
2023/05/15 03:57:27;;;;;;;9.27;3.33;;;12.60;99.90;;;;;;4995063;28;20050;-77
2023/05/15 03:59:53;;;;;;;4.28;3.45;;;12.60;99.90;;;;;;4995206;28;20046;-77
2023/05/15 04:02:20;;;;;;;4.55;3.45;;;12.50;99.90;;;;;;4995321;28;20043;-77
2023/05/15 04:04:47;;;;;;;9.55;3.90;;;12.50;99.90;;;;;;4995112;28;20077;-77
2023/05/15 04:07:14;;;;;;;4.63;3.50;;;12.50;99.90;;;;;;4995348;28;20046;-77
2023/05/15 04:09:43;;;;;;;6.07;3.42;;;12.40;99.90;;;;;;4993076;28;20054;-76
2023/05/15 04:12:09;;;;;;;4.70;3.92;;;12.40;99.90;;;;;;4995258;28;21367;-77
2023/05/15 04:14:36;;;;;;;5.00;3.78;;;12.30;99.90;;;;;;4994927;28;20051;-77
2023/05/15 04:17:03;;;;;;;4.00;3.33;;;12.30;99.90;;;;;;4994738;28;20073;-77
2023/05/15 04:19:30;;;;;;;4.53;3.65;;;12.30;99.90;;;;;;4994823;28;20058;-77
2023/05/15 04:21:56;;;;;;;5.63;3.33;;;12.20;99.90;;;;;;4994988;28;20047;-77
2023/05/15 04:24:23;;;;;;;5.50;4.05;;;12.20;99.90;;;;;;4994786;28;20494;-76
2023/05/15 04:26:50;;;;;;;6.75;4.00;;;12.20;99.90;;;;;;4994489;28;20567;-77
2023/05/15 04:29:16;;;;;;;4.97;3.72;;;12.20;99.90;;;;;;4993414;28;20065;-77
2023/05/15 04:31:43;;;;;;;4.50;3.58;;;12.20;99.90;;;;;;4990341;28;20057;-78
2023/05/15 04:34:10;;;;;;;4.25;3.85;;;12.20;99.90;;;;;;4990091;28;20109;-77
2023/05/15 04:36:36;;;;;;;5.97;4.20;;;12.20;99.90;;;;;;4992615;28;20069;-77
2023/05/15 04:39:05;;;;;;;4.85;4.07;;;12.20;99.90;;;;;;4993221;28;20082;-77
2023/05/15 04:41:32;;;;;;;4.88;4.07;;;12.20;99.90;;;;;;4991507;28;20054;-77
2023/05/15 04:43:59;;;;;;;5.22;3.47;;;12.20;99.90;;;;;;4992714;28;20061;-77
2023/05/15 04:46:25;;;;;;;6.53;4.78;;;12.20;99.90;;;;;;4994232;28;20057;-77
2023/05/15 04:48:52;;;;;;;5.00;4.50;;;12.20;99.90;;;;;;4994430;28;20051;-77
2023/05/15 04:51:19;;;;;;;5.28;4.32;;;12.20;99.90;;;;;;4994399;28;20055;-77
2023/05/15 04:53:45;;;;;;;4.60;3.95;;;12.20;99.90;;;;;;4994309;28;20060;-77
2023/05/15 04:56:12;;;;;;;5.18;4.30;;;12.20;99.90;;;;;;4993870;28;20411;-77
2023/05/15 04:58:39;;;;;;;5.60;4.13;;;12.20;99.90;;;;;;4992096;28;20046;-77
2023/05/15 05:01:05;;;;;;;6.72;4.28;;;12.20;99.90;;;;;;4994444;28;20050;-77
2023/05/15 05:03:32;;;;;;;4.20;3.78;;;12.30;99.90;;;;;;5006570;28;20066;-77
2023/05/15 05:05:59;;;;;;;7.05;4.10;;;12.40;99.90;;;;;;4990847;28;20051;-77
2023/05/15 05:08:26;;;;;;;5.63;4.70;;;12.40;99.90;;;;;;5000027;28;20050;-77
2023/05/15 05:10:58;;;;;;;6.50;4.90;;;12.40;99.90;;;;;;4993775;28;20054;-77
2023/05/15 05:13:25;;;;;;;7.38;4.70;;;12.50;99.90;;;;;;4980920;28;20050;-77
2023/05/15 05:15:52;;;;;;;6.07;5.07;;;12.60;99.90;;;;;;4989122;28;20046;-77
2023/05/15 05:18:18;;;;;;;6.47;4.68;;;12.60;99.90;;;;;;4989422;28;20057;-77
2023/05/15 05:20:45;;;;;;;7.15;4.90;;;12.70;99.90;;;;;;4993203;28;20052;-77
2023/05/15 05:23:13;;;;;;;5.47;4.65;;;12.70;99.90;;;;;;4988941;28;20422;-77
2023/05/15 05:25:40;;;;;;;8.55;5.68;;;12.80;99.90;;;;;;4989323;28;20088;-77
2023/05/15 05:28:07;;;;;;;5.05;4.55;;;12.80;99.90;;;;;;4987125;28;20129;-77
2023/05/15 05:30:33;;;;;;;6.10;4.53;;;12.90;99.90;;;;;;4987724;28;20054;-77
2023/05/15 05:33:00;;;;;;;5.32;4.47;;;12.90;99.90;;;;;;4992296;28;20046;-77
2023/05/15 05:35:27;;;;;;;6.07;4.78;;;12.90;99.90;;;;;;4988918;28;20082;-77
2023/05/15 05:37:53;;;;;;;4.95;4.45;;;13.00;99.90;;;;;;4991129;28;20449;-77
2023/05/15 05:40:20;;;;;;;5.57;4.47;;;13.00;99.90;;;;;;4985496;28;20387;-75
2023/05/15 05:42:47;;;;;;;6.57;4.75;;;13.00;99.90;;;;;;4988178;28;20046;-75
2023/05/15 05:45:13;;;;;;;5.43;4.43;;;13.10;99.90;;;;;;4989199;28;20046;-75
2023/05/15 05:47:40;;;;;;;6.05;5.18;;;13.20;99.90;;;;;;4987500;28;20042;-77
2023/05/15 05:50:07;;;;;;;5.82;5.00;;;13.20;99.90;;;;;;4991269;28;20042;-77
2023/05/15 05:52:34;;;;;;;5.50;4.43;;;13.20;99.90;;;;;;4990059;28;20050;-75
2023/05/15 05:55:00;;;;;;;5.93;4.20;;;13.30;99.90;;;;;;4989442;28;20046;-75
2023/05/15 05:57:27;;;;;;;8.07;4.43;;;13.40;99.90;;;;;;4992727;28;20419;-75
2023/05/15 05:59:54;;;;;;;5.32;4.18;;;13.40;99.90;;;;;;4991431;28;20047;-75
2023/05/15 06:02:20;;;;;;;4.80;4.15;;;13.50;99.90;;;;;;4986430;28;20049;-75
2023/05/15 06:04:47;;;;;;;6.43;4.82;;;13.50;99.90;;;;;;5002755;28;20046;-74
2023/05/15 06:07:14;;;;;;;5.88;5.10;;;13.60;99.90;;;;;;4989962;28;20046;-75
2023/05/15 06:09:41;;;;;;;5.75;4.95;;;13.60;99.90;;;;;;4990761;28;20507;-75
2023/05/15 06:12:08;;;;;;;5.47;4.97;;;13.60;99.90;;;;;;4987321;28;20133;-77
2023/05/15 06:14:34;;;;;;;5.47;4.65;;;13.70;99.90;;;;;;4987752;28;20061;-77
2023/05/15 06:17:01;;;;;;;8.05;5.28;;;13.70;99.90;;;;;;4988694;28;20047;-76
2023/05/15 06:19:29;;;;;;;5.93;5.32;;;13.80;99.90;;;;;;4992243;28;20084;-76
2023/05/15 06:21:55;;;;;;;7.47;4.78;;;13.80;99.90;;;;;;4992515;28;20498;-76
2023/05/15 06:24:22;;;;;;;6.13;5.07;;;13.90;99.90;;;;;;4991023;28;20046;-76
2023/05/15 06:26:49;;;;;;;7.47;4.50;;;13.90;99.90;;;;;;4992269;28;20057;-76
2023/05/15 06:29:18;;;;;;;4.93;4.28;;;14.00;99.90;;;;;;4978819;28;20054;-76
2023/05/15 06:31:44;;;;;;;7.25;4.82;;;14.10;99.90;;;;;;4992335;28;20058;-76
2023/05/15 06:34:11;;;;;;;6.35;4.65;;;14.10;99.90;;;;;;4992076;28;20407;-76
2023/05/15 06:36:38;;;;;;;7.35;4.45;;;14.20;99.90;;;;;;4991922;28;20070;-76
2023/05/15 06:39:04;;;;;;;7.03;4.32;;;14.20;99.90;;;;;;4992025;28;20054;-77
2023/05/15 06:41:31;;;;;;;8.02;4.95;;;14.30;99.90;;;;;;4992283;28;20086;-76
2023/05/15 06:43:58;;;;;;;6.85;4.80;;;14.30;99.90;;;;;;4990380;28;20039;-76
2023/05/15 06:46:25;;;;;;;7.22;5.35;;;14.30;99.90;;;;;;4986419;28;20458;-77
2023/05/15 06:48:51;;;;;;;5.43;4.75;;;14.40;99.90;;;;;;4992009;28;20054;-76
2023/05/15 06:51:18;;;;;;;6.90;4.75;;;14.50;99.90;;;;;;4992041;28;20046;-77
2023/05/15 06:53:45;;;;;;;6.93;4.65;;;14.50;99.90;;;;;;4992325;28;20407;-77
2023/05/15 06:56:11;;;;;;;5.93;4.53;;;14.50;99.90;;;;;;4991645;28;20494;-77
2023/05/15 06:58:38;;;;;;;6.47;5.47;;;14.50;99.90;;;;;;4992015;28;20050;-77
2023/05/15 07:01:06;;;;;;;9.82;5.15;;;14.50;99.90;;;;;;4991832;28;20050;-76
2023/05/15 07:03:33;;;;;;;5.47;4.97;;;14.50;99.90;;;;;;4992203;28;20050;-76
2023/05/15 07:05:59;;;;;;;8.05;5.28;;;14.50;99.90;;;;;;4991736;28;20073;-77
2023/05/15 07:08:26;;;;;;;5.85;5.07;;;14.50;99.90;;;;;;4991975;28;20050;-77
2023/05/15 07:10:53;;;;;;;6.60;5.13;;;14.50;99.90;;;;;;4991776;28;20417;-76
2023/05/15 07:13:20;;;;;;;7.68;5.60;;;14.50;99.90;;;;;;4991816;28;20050;-76
2023/05/15 07:15:47;;;;;;;5.68;5.07;;;14.60;99.90;;;;;;4991430;28;20050;-77
2023/05/15 07:18:13;;;;;;;7.93;5.57;;;14.60;99.90;;;;;;4991476;28;20065;-77
2023/05/15 07:20:40;;;;;;;7.03;4.78;;;14.70;99.90;;;;;;4990456;28;20043;-76
2023/05/15 07:23:07;;;;;;;7.35;5.68;;;14.70;99.90;;;;;;4988953;28;20058;-76
2023/05/15 07:25:33;;;;;;;6.00;4.55;;;14.80;99.90;;;;;;4991314;28;20418;-76
2023/05/15 07:28:00;;;;;;;7.03;5.50;;;14.80;99.90;;;;;;4991381;28;20133;-76
2023/05/15 07:30:27;;;;;;;7.55;5.43;;;14.80;99.90;;;;;;4994542;28;20054;-76
2023/05/15 07:32:54;;;;;;;9.52;5.07;;;14.90;99.90;;;;;;4986015;28;20047;-76
2023/05/15 07:35:20;;;;;;;6.47;5.40;;;14.90;99.90;;;;;;4995469;28;20097;-77
2023/05/15 07:37:47;;;;;;;7.72;5.13;;;14.90;99.90;;;;;;4994106;28;20050;-76
2023/05/15 07:40:14;;;;;;;8.80;5.75;;;15.00;99.90;;;;;;4995087;28;20069;-76
2023/05/15 07:42:43;;;;;;;7.70;4.68;;;15.00;99.90;;;;;;4995085;28;20057;-76
2023/05/15 07:45:10;;;;;;;6.68;5.45;;;15.00;99.90;;;;;;4995065;28;20133;-76
2023/05/15 07:47:36;;;;;;;8.55;4.75;;;15.10;99.90;;;;;;4995241;28;20137;-76
2023/05/15 07:50:03;;;;;;;7.40;5.10;;;15.20;99.90;;;;;;4995358;28;20145;-76
2023/05/15 07:52:30;;;;;;;6.20;4.82;;;15.30;99.90;;;;;;4993137;28;20137;-77
2023/05/15 07:54:57;;;;;;;5.93;4.93;;;15.40;99.90;;;;;;4994832;28;20061;-76
2023/05/15 07:57:25;;;;;;;11.68;4.97;;;15.50;99.90;;;;;;4994997;28;20494;-76
2023/05/15 07:59:52;;;;;;;7.05;4.47;;;15.60;99.90;;;;;;4995168;28;20047;-77
2023/05/15 08:02:18;;;;;;;7.25;5.25;;;15.70;99.90;;;;;;4995008;28;20453;-76
2023/05/15 08:04:45;;;;;;;5.43;4.85;;;15.80;99.90;;;;;;4994933;28;20054;-76
2023/05/15 08:07:12;;;;;;;5.97;5.22;;;15.90;99.90;;;;;;4995008;28;20061;-76
2023/05/15 08:09:39;;;;;;;6.30;4.65;;;15.90;99.90;;;;;;4994762;28;20532;-76
2023/05/15 08:12:19;;;;;;;6.88;4.97;;;16.00;99.90;;;;;;4995116;28;20050;-77
2023/05/15 08:14:53;;;;;;;5.93;5.03;;;16.00;99.90;;;;;;4993079;28;20058;-75
2023/05/15 08:17:21;;;;;;;7.70;5.35;;;16.10;99.90;;;;;;4994767;28;20043;-77
2023/05/15 08:19:48;;;;;;;7.13;5.03;;;16.10;99.90;;;;;;4994421;28;20050;-76
2023/05/15 08:22:15;;;;;;;6.95;5.35;;;16.00;99.90;;;;;;4994726;28;20043;-76
2023/05/15 08:24:41;;;;;;;9.27;5.70;;;16.10;99.90;;;;;;4994524;28;20046;-76
2023/05/15 08:27:10;;;;;;;9.13;5.88;;;16.00;99.90;;;;;;4994255;28;20525;-77
2023/05/15 08:29:37;;;;;;;8.35;5.93;;;16.00;99.90;;;;;;4991190;28;20514;-76
2023/05/15 08:32:06;;;;;;;6.75;5.30;;;16.10;99.90;;;;;;4994491;28;20545;-76
2023/05/15 08:34:33;;;;;;;6.20;5.20;;;16.10;99.90;;;;;;5009545;28;20050;-76
2023/05/15 08:36:59;;;;;;;7.07;5.25;;;16.20;99.90;;;;;;4993877;28;20050;-76
2023/05/15 08:39:26;;;;;;;6.38;5.40;;;16.20;99.90;;;;;;4994047;28;20042;-76
2023/05/15 08:42:15;;;;;;;5.97;4.88;;;16.20;99.90;;;;;;4993290;28;20052;-76
2023/05/15 08:44:43;;;;;;;7.75;5.18;;;16.30;99.90;;;;;;4992018;28;20042;-76
2023/05/15 08:47:10;;;;;;;7.93;5.32;;;16.40;99.90;;;;;;4993959;28;20050;-76
2023/05/15 08:49:53;;;;;;;7.22;5.32;;;16.50;99.90;;;;;;5008353;28;20146;-76
2023/05/15 08:52:20;;;;;;;9.23;5.38;;;16.60;99.90;;;;;;4994194;28;20101;-76
2023/05/15 08:54:47;;;;;;;7.18;5.22;;;16.70;99.90;;;;;;4994139;28;20061;-76
2023/05/15 08:57:15;;;;;;;6.70;5.60;;;16.70;99.90;;;;;;4993905;28;20046;-77
2023/05/15 08:59:42;;;;;;;7.20;5.53;;;16.80;99.90;;;;;;4994281;28;20426;-76
2023/05/15 09:02:09;;;;;;;7.85;4.70;;;16.90;99.90;;;;;;4994251;28;20057;-77
2023/05/15 09:04:35;;;;;;;7.47;5.05;;;16.90;99.90;;;;;;4993832;28;20498;-76
2023/05/15 09:07:04;;;;;;;7.28;5.75;;;17.00;99.90;;;;;;4993690;28;20054;-77
2023/05/15 09:09:33;;;;;;;7.88;6.13;;;17.00;99.90;;;;;;4992794;28;20506;-77
2023/05/15 09:12:01;;;;;;;8.82;5.53;;;17.10;99.90;;;;;;4993842;28;20057;-77
2023/05/15 09:14:28;;;;;;;7.05;5.65;;;17.10;99.90;;;;;;4993722;28;20057;-77
2023/05/15 09:16:54;;;;;;;6.80;6.05;;;17.20;99.90;;;;;;4993555;28;20050;-77
2023/05/15 09:19:21;;;;;;;14.85;6.63;;;17.30;99.90;;;;;;4993647;28;20054;-77
2023/05/15 09:21:48;;;;;;;8.27;5.25;;;17.30;99.90;;;;;;4991896;28;20763;-76
2023/05/15 09:24:15;;;;;;;8.73;5.38;;;17.40;99.90;;;;;;4990724;28;20065;-76
2023/05/15 09:26:43;;;;;;;9.70;5.90;;;17.50;99.90;;;;;;4992858;28;20682;-77
2023/05/15 09:29:10;;;;;;;8.63;6.03;;;17.50;99.90;;;;;;4993071;28;20069;-77
2023/05/15 09:31:37;;;;;;;8.98;5.45;;;17.60;99.90;;;;;;4993521;28;20050;-76
2023/05/15 09:34:04;;;;;;;6.88;5.90;;;17.70;99.90;;;;;;5008769;28;20050;-77
2023/05/15 09:36:31;;;;;;;7.43;6.53;;;17.70;99.90;;;;;;4992328;28;20081;-76
2023/05/15 09:39:00;;;;;;;9.77;6.13;;;17.70;99.90;;;;;;4991937;28;20465;-77
2023/05/15 09:41:27;;;;;;;7.72;6.18;;;17.80;99.90;;;;;;4993716;28;20046;-77
2023/05/15 09:43:55;;;;;;;7.25;5.80;;;17.80;99.90;;;;;;4993502;28;20057;-77
2023/05/15 09:46:23;;;;;;;7.68;6.57;;;17.90;99.90;;;;;;4993329;28;20442;-77
2023/05/15 09:48:54;;;;;;;8.98;6.63;;;17.90;99.90;;;;;;4990175;28;20141;-77
2023/05/15 09:51:21;;;;;;;10.95;5.28;;;18.00;99.90;;;;;;4992565;28;20081;-76
2023/05/15 09:53:49;;;;;;;8.40;5.32;;;18.00;99.90;;;;;;4991701;28;20050;-77
2023/05/15 09:56:16;;;;;;;7.95;5.65;;;18.00;99.90;;;;;;4991650;28;20142;-77
2023/05/15 09:58:57;;;;;;;8.77;5.93;;;18.10;99.90;;;;;;4992576;28;20062;-77
2023/05/15 10:01:24;;;;;;;6.10;5.50;;;18.10;99.90;;;;;;4992782;28;20572;-77
2023/05/15 10:03:59;;;;;;;7.38;5.95;;;18.20;99.90;;;;;;5003852;28;20051;-77
2023/05/15 10:06:33;;;;;;;8.88;5.70;;;18.20;99.90;;;;;;4993279;28;20046;-77
2023/05/15 10:09:02;;;;;;;8.15;5.18;;;18.30;99.90;;;;;;4991670;28;20047;-76
2023/05/15 10:11:36;;;;;;;7.22;5.03;;;18.30;99.90;;;;;;4992346;28;20042;-77
2023/05/15 10:14:05;;;;;;;6.68;5.50;;;18.40;99.90;;;;;;4992653;28;20081;-77
2023/05/15 10:16:37;;;;;;;6.75;5.35;;;18.50;99.90;;;;;;4989102;28;20495;-77
2023/05/15 10:19:06;;;;;;;6.25;5.50;;;18.50;99.90;;;;;;4990598;28;20047;-77
2023/05/15 10:21:37;;;;;;;8.05;5.63;;;18.60;99.90;;;;;;4989636;28;20190;-77
2023/05/15 10:24:05;;;;;;;5.43;4.85;;;18.60;99.90;;;;;;4990337;28;20042;-76
2023/05/15 10:26:42;;;;;;;6.90;5.18;;;18.50;99.90;;;;;;4990050;28;20407;-77
2023/05/15 10:29:11;;;;;;;8.57;5.70;;;18.50;99.90;;;;;;4993380;28;20052;-76
2023/05/15 10:31:41;;;;;;;9.50;5.20;;;18.30;99.90;;;;;;4991713;28;20494;-77
2023/05/15 10:34:09;;;;;;;;;;;18.20;99.90;;;;;;4992402;28;20054;-77
2023/05/15 10:36:38;;;;;;;8.27;5.63;;;18.10;99.90;;;;;;4991308;28;19921;-77
2023/05/15 10:39:06;;;;;;;6.88;5.70;;;18.00;99.90;;;;;;4991930;28;20640;-76
2023/05/15 10:41:35;;;;;;;5.07;4.57;;;17.90;99.90;;;;;;4990894;28;20038;-77
2023/05/15 10:44:02;;;;;;;6.07;5.05;;;17.80;99.90;;;;;;4991535;28;20049;-77
2023/05/15 10:46:32;;;;;;;6.95;5.70;;;17.70;99.90;;;;;;4991226;28;20057;-77
2023/05/15 10:49:00;;;;;;;6.43;4.60;;;17.60;99.90;;;;;;4991826;28;20046;-77
2023/05/15 10:51:29;;;;;;;4.85;3.72;;;17.50;99.90;;;;;;4991658;28;20058;-76
2023/05/15 10:53:56;;;;;;;4.25;3.40;;;17.50;99.90;;;;;;4991557;28;20046;-77
2023/05/15 10:56:29;;;;;;;4.95;3.85;;;17.40;99.90;;;;;;4990513;28;20056;-76
2023/05/15 10:58:56;;;;;;;8.60;5.40;;;17.40;99.90;;;;;;4991384;28;20046;-77
2023/05/15 11:01:28;;;;;;;7.40;5.47;;;17.40;99.90;;;;;;4991403;28;20045;-77
2023/05/15 11:04:15;;;;;;;5.78;4.75;;;17.40;99.90;;;;;;4988613;28;20117;-77
2023/05/15 11:06:44;;;;;;;6.07;4.55;;;17.40;99.90;;;;;;4990248;28;20530;-76
2023/05/15 11:09:26;;;;;;;7.47;5.38;;;17.40;99.90;;;;;;4991951;28;20042;-77
2023/05/15 11:11:59;;;;;;;6.15;5.15;;;17.40;99.90;;;;;;4991926;28;20061;-77
2023/05/15 11:14:31;;;;;;;7.07;5.22;;;17.50;99.90;;;;;;4990170;28;20073;-77
2023/05/15 11:16:58;;;;;;;6.53;5.10;;;17.50;99.90;;;;;;4987983;28;20046;-77
2023/05/15 11:19:28;;;;;;;5.22;4.47;;;17.50;99.90;;;;;;4989135;28;20057;-77
2023/05/15 11:22:13;;;;;;;5.07;4.18;;;17.50;99.90;;;;;;4989426;28;20042;-77
2023/05/15 11:24:51;;;;;;;5.50;3.95;;;17.50;99.90;;;;;;4987868;28;20042;-77
2023/05/15 11:27:28;;;;;;;3.50;2.70;;;17.50;99.90;;;;;;4988228;28;20050;-77
2023/05/15 11:30:13;;;;;;;5.28;3.88;;;17.50;99.90;;;;;;4988012;28;20514;-77
2023/05/15 11:32:46;;;;;;;4.38;2.33;;;17.60;99.90;;;;;;4987772;28;20046;-77
2023/05/15 11:35:18;;;;;;;3.83;2.50;;;17.60;99.90;;;;;;4988756;28;20050;-77
2023/05/15 11:37:47;;;;;;;2.22;1.60;;;17.60;99.90;;;;;;4992123;28;20418;-77
2023/05/15 11:40:43;;;;;;;2.30;1.67;;;17.60;99.90;;;;;;4990308;28;20706;-77
2023/05/15 11:43:18;;;;;;;3.35;1.90;;;17.60;99.90;;;;;;4990514;28;20065;-77
2023/05/15 11:45:52;;;;;;;2.38;1.80;;;17.70;99.90;;;;;;4987290;28;20130;-77
2023/05/15 11:48:18;;;;;;;3.08;2.50;;;17.70;99.90;;;;;;4991102;28;20053;-77
2023/05/15 11:50:45;;;;;;;4.50;2.03;;;17.80;99.90;;;;;;4989156;28;20050;-77
2023/05/15 11:53:13;;;;;;;4.03;2.97;;;17.80;99.90;;;;;;4983334;28;20130;-77
2023/05/15 11:55:42;;;;;;;2.92;2.63;;;17.90;99.90;;;;;;4987090;28;20047;-77
2023/05/15 11:58:17;;;;;;;2.65;2.42;;;18.00;99.90;;;;;;4994434;28;20128;-77
2023/05/15 12:00:45;;;;;;;5.18;3.03;;;18.10;99.90;;;;;;4988583;28;20050;-77
2023/05/15 12:03:26;;;;;;;7.18;3.95;;;18.10;99.90;;;;;;4989722;28;20110;-77
2023/05/15 12:05:53;;;;;;;5.72;4.13;;;18.20;99.90;;;;;;4990594;28;20070;-77
2023/05/15 12:08:36;;;;;;;4.85;3.58;;;18.30;99.90;;;;;;4991412;28;20092;-77
2023/05/15 12:11:03;;;;;;;4.47;3.65;;;18.40;99.90;;;;;;4989665;28;20125;-78
2023/05/15 12:13:31;;;;;;;5.70;3.35;;;18.50;99.90;;;;;;4989204;28;20073;-78
2023/05/15 12:15:59;;;;;;;4.50;2.97;;;18.50;99.90;;;;;;4988608;28;20058;-78
2023/05/15 12:18:26;;;;;;;3.97;2.97;;;18.50;99.90;;;;;;4991540;28;20042;-78
2023/05/15 12:20:53;;;;;;;2.63;2.30;;;18.50;99.90;;;;;;5008004;28;20042;-77
2023/05/15 12:23:22;;;;;;;3.83;3.13;;;18.50;99.90;;;;;;4991251;28;20048;-77
2023/05/15 12:25:53;;;;;;;7.53;3.20;;;18.60;99.90;;;;;;4996356;28;20049;-79
2023/05/15 12:28:20;;;;;;;7.20;3.22;;;18.60;99.90;;;;;;4993874;28;20046;-77
2023/05/15 12:30:48;;;;;;;3.55;2.58;;;18.60;99.90;;;;;;4986135;28;20053;-77
2023/05/15 12:33:15;;;;;;;4.50;2.92;;;18.70;99.90;;;;;;4993894;28;20047;-78
2023/05/15 12:35:48;;;;;;;8.48;2.55;;;18.90;99.90;;;;;;4992234;28;20058;-77
2023/05/15 12:38:17;;;;;;;11.45;2.28;;;19.00;99.90;;;;;;4991587;28;20050;-77
2023/05/15 12:40:45;;;;;;;3.23;2.20;;;18.90;99.90;;;;;;4992806;28;20042;-77
2023/05/15 12:43:13;;;;;;;3.03;1.80;;;18.80;99.90;;;;;;4994387;28;20348;-77
2023/05/15 12:45:40;;;;;;;6.47;2.17;;;18.70;99.90;;;;;;5004373;28;20039;-77
2023/05/15 12:48:15;;;;;;;5.47;2.10;;;18.60;99.90;;;;;;4994586;28;20050;-77
2023/05/15 12:50:43;;;;;;;2.78;1.95;;;18.40;99.90;;;;;;4993666;28;20050;-77
2023/05/15 12:53:14;;;;;;;3.67;2.20;;;18.40;99.90;;;;;;4993033;28;20050;-77
2023/05/15 12:55:42;;;;;;;3.13;2.00;;;18.40;99.90;;;;;;5006984;28;20054;-77